CFB Borden, Ontario

Past 24 Hour Conditions

This table is a summary of hourly weather conditions for the past 24 hours. This summary includes the following parameters: temperature, humidity, dew point, wind speed and direction, air pressure, visibility and/or wind chill and humidex.
Date / Time
(EDT)
Conditions Temp (°C) Humidity (%) Dew Point (°C) Wind (km/h) Pressure (kPa) Vis (km) Wind Chill
19 April 2014
00:00 Clear -2   92 -3 NW 6 102.7 15 -5
18 April 2014
23:00 Clear 0 85 -2 W 7 102.7 15 -3
22:00 Clear 0 88 -1 N 7 102.6 15 *
21:00 Clear 1 89 -1 N 6 102.6 15 *
20:00 Sunny 3 78 0 N 7 102.5 15 *
19:00 Mainly Sunny 7 67 1 NNW 7 102.5 15 *
18:00 Mainly Sunny 7 65 1 NNW 17 102.5 15 *
17:00 Mostly Cloudy 10   72 5 N 22 gust 32 102.4 15 *
16:00 Cloudy 8 77 4 SW 7 102.5 15 *
15:00 Cloudy 7 93 6 WNW 6 102.5 11 *
14:00 Cloudy 6 99 6 calm 102.5 8 *
13:00 Light Rain 6 97 5 N 11 102.5 10 *
12:00 Rain 6 97 5 N 7 102.6 8 *
11:00 Light Rain 7 86 5 W 6 102.5 10 *
10:00 Cloudy 7 71 2 SW 6 102.6 15 *
9:00 Mostly Cloudy 6 71 1 SSE 9 102.5 15 *
8:00 Mostly Cloudy 6 67 0 SE 9 102.6 15 *
7:00 Cloudy 5 67 0 SE 9 102.5 15 *
6:00 Clear 5 66 -1 SE 9 102.4 15 *
5:00 Clear 5 67 -1 SE 13 102.4 15 *
4:00 Clear 5 67 -1 SSE 11 102.5 15 *
3:00 Clear 3 70 -2 S 7 102.5 15 *
2:00 Clear 3 67 -3 SE 9 102.6 15 *
1:00 Partly Cloudy 4 62 -3 S 9 102.7 15 *
00:00 Partly Cloudy 3 64 -3 S 9 102.7 15 *
N/A
Not available
 ↑ 
Highest temperature
 ↓ 
Lowest temperature
*
Value not significant.

If you require additional historical weather information, please visit Climate Data Online.